< < Back
Terminal Aerodrome Forecast


Current Version              Previous Versions:   1  2  3  4  5  6  7  8  9  

Terminal Aerodrome Forecast

671
FTUS42 KFFC 301500 AAA
TAFMCN
TAF AMD
KMCN 301552Z 3016/3112 02004KT P6SM FEW030
     FM301800 03005KT P6SM SCT030 SCT250
     FM310300 03005KT P6SM FEW250
     FM310900 00000KT P6SM BKN150=

Latest METAR

248
SAUS80 KWBC 310700
MTRMCN
METAR KMCN 310653Z AUTO 00000KT 10SM CLR 19/19 A3000 RMK AO2 SLP153
T01890189 TSNO


USA.gov is the U.S. government's official web portal to all federal, state and local government web resources and services.